createdAt,value
2019-05-13T00:00:04.388Z,72
2019-05-13T00:00:40.095Z,72
2019-05-13T00:01:16.178Z,72
2019-05-13T00:01:54.417Z,72
2019-05-13T00:02:28.131Z,71
2019-05-13T00:03:04.509Z,72
2019-05-13T00:03:40.169Z,72
2019-05-13T00:04:16.145Z,72
2019-05-13T00:04:53.803Z,72
2019-05-13T00:05:28.136Z,72
2019-05-13T00:06:04.807Z,72
2019-05-13T00:06:57.945Z,72
2019-05-13T00:07:54.443Z,72
2019-05-13T00:08:28.175Z,72
2019-05-13T00:09:04.162Z,72
2019-05-13T00:09:40.155Z,72
2019-05-13T00:10:16.093Z,72
2019-05-13T00:10:54.639Z,72
2019-05-13T00:11:28.152Z,72
2019-05-13T00:12:05.393Z,72
2019-05-13T00:12:40.219Z,72
2019-05-13T00:13:16.181Z,73
2019-05-13T00:13:54.263Z,73
2019-05-13T00:14:28.113Z,73
2019-05-13T00:15:04.391Z,73
2019-05-13T00:15:40.162Z,73
2019-05-13T00:16:16.129Z,73
2019-05-13T00:16:54.309Z,73
2019-05-13T00:17:28.188Z,73
2019-05-13T00:18:04.722Z,73
2019-05-13T00:18:40.128Z,73
2019-05-13T00:19:16.085Z,73
2019-05-13T00:19:53.777Z,73
2019-05-13T00:20:28.169Z,74
2019-05-13T00:21:04.425Z,73
2019-05-13T00:21:40.096Z,73
2019-05-13T00:22:16.179Z,74
2019-05-13T00:22:54.354Z,74
2019-05-13T00:23:28.131Z,74
2019-05-13T00:24:04.735Z,74
2019-05-13T00:24:40.173Z,74
2019-05-13T00:25:16.181Z,74
2019-05-13T00:25:54.726Z,74
2019-05-13T00:26:28.090Z,74
2019-05-13T00:27:04.586Z,75
2019-05-13T00:27:40.142Z,75
2019-05-13T00:28:16.132Z,75
2019-05-13T00:28:54.060Z,75
2019-05-13T00:29:28.179Z,75
2019-05-13T00:30:04.888Z,75
2019-05-13T00:30:40.133Z,75
2019-05-13T00:31:16.097Z,75
2019-05-13T00:31:54.497Z,75
2019-05-13T00:32:28.145Z,75
2019-05-13T00:33:04.559Z,75
2019-05-13T00:33:40.084Z,75
2019-05-13T00:34:16.158Z,75
2019-05-13T00:34:54.027Z,75
2019-05-13T00:35:28.121Z,75
2019-05-13T00:36:04.705Z,75
2019-05-13T00:36:40.168Z,75
2019-05-13T00:37:16.134Z,75
2019-05-13T00:37:54.550Z,75
2019-05-13T00:38:28.070Z,75
2019-05-13T00:39:04.589Z,75
2019-05-13T00:39:40.145Z,75
2019-05-13T00:40:16.152Z,75
2019-05-13T00:40:54.780Z,75
2019-05-13T00:41:28.145Z,75
2019-05-13T00:42:04.692Z,75
2019-05-13T00:42:40.125Z,75
2019-05-13T00:43:16.192Z,75
2019-05-13T00:43:53.806Z,75
2019-05-13T00:44:28.149Z,75
2019-05-13T00:45:04.634Z,75
2019-05-13T00:45:40.216Z,75
2019-05-13T00:46:16.139Z,75
2019-05-13T00:46:54.312Z,75
2019-05-13T00:47:28.081Z,75
2019-05-13T00:48:05.252Z,74
2019-05-13T00:48:40.184Z,74
2019-05-13T00:49:16.117Z,74
2019-05-13T00:49:54.532Z,74
2019-05-13T00:50:28.287Z,74
2019-05-13T00:51:04.579Z,74
2019-05-13T00:51:40.118Z,74
2019-05-13T00:52:16.087Z,74
2019-05-13T00:52:54.254Z,74
2019-05-13T00:53:28.140Z,74
2019-05-13T00:54:04.927Z,74
2019-05-13T00:54:40.083Z,74
2019-05-13T00:55:16.160Z,74
2019-05-13T00:55:54.183Z,74
2019-05-13T00:56:28.103Z,74
2019-05-13T00:57:04.862Z,74
2019-05-13T00:57:40.177Z,74
2019-05-13T00:58:16.139Z,74
2019-05-13T00:58:54.590Z,74
2019-05-13T00:59:28.150Z,74
2019-05-13T01:00:04.244Z,74
2019-05-13T01:00:40.171Z,74
2019-05-13T01:01:16.105Z,74
2019-05-13T01:01:53.913Z,74
2019-05-13T01:02:28.177Z,74
2019-05-13T01:03:04.778Z,74
2019-05-13T01:03:40.146Z,74
2019-05-13T01:04:16.066Z,74
2019-05-13T01:04:54.149Z,74
2019-05-13T01:05:28.132Z,74
2019-05-13T01:06:04.898Z,74
2019-05-13T01:06:40.188Z,74
2019-05-13T01:07:29.099Z,74
2019-05-13T01:07:54.269Z,74
2019-05-13T01:08:28.107Z,74
2019-05-13T01:09:04.755Z,74
2019-05-13T01:09:40.160Z,74
2019-05-13T01:10:16.133Z,74
2019-05-13T01:10:54.261Z,75
2019-05-13T01:11:28.197Z,74
2019-05-13T01:12:05.056Z,74
2019-05-13T01:12:40.115Z,74
2019-05-13T01:13:16.092Z,74
2019-05-13T01:13:54.200Z,74
2019-05-13T01:14:28.148Z,74
2019-05-13T01:15:04.720Z,74
2019-05-13T01:15:40.091Z,74
2019-05-13T01:16:16.200Z,74
2019-05-13T01:16:54.597Z,75
2019-05-13T01:17:28.115Z,75
2019-05-13T01:18:04.771Z,75
2019-05-13T01:18:40.197Z,75
2019-05-13T01:19:16.146Z,75
2019-05-13T01:19:54.307Z,75
2019-05-13T01:20:28.088Z,75
2019-05-13T01:21:05.020Z,75
2019-05-13T01:21:40.140Z,75
2019-05-13T01:22:16.097Z,75
2019-05-13T01:22:54.598Z,75
2019-05-13T01:23:28.169Z,75
2019-05-13T01:24:04.466Z,75
2019-05-13T01:24:40.110Z,75
2019-05-13T01:25:16.081Z,75
2019-05-13T01:25:54.627Z,75
2019-05-13T01:26:28.149Z,75
2019-05-13T01:27:04.716Z,75
2019-05-13T01:27:40.062Z,75
2019-05-13T01:28:16.177Z,75
2019-05-13T01:28:54.150Z,75
2019-05-13T01:29:28.122Z,75
2019-05-13T01:30:04.771Z,75
2019-05-13T01:30:40.190Z,75
2019-05-13T01:31:16.145Z,75
2019-05-13T01:31:54.312Z,75
2019-05-13T01:32:28.199Z,75
2019-05-13T01:33:05.048Z,75
2019-05-13T01:33:40.127Z,75
2019-05-13T01:34:16.104Z,75
2019-05-13T01:34:54.425Z,75
2019-05-13T01:35:28.165Z,75
2019-05-13T01:36:05.908Z,75
2019-05-13T01:36:40.112Z,75
2019-05-13T01:37:16.208Z,75
2019-05-13T01:37:54.371Z,75
2019-05-13T01:38:28.176Z,75
2019-05-13T01:39:04.821Z,75
2019-05-13T01:39:40.218Z,75
2019-05-13T01:40:16.149Z,75
2019-05-13T01:40:54.463Z,75
2019-05-13T01:41:28.103Z,75
2019-05-13T01:42:04.392Z,75
2019-05-13T01:42:40.177Z,75
2019-05-13T01:43:16.110Z,75
2019-05-13T01:43:54.651Z,75
2019-05-13T01:44:28.173Z,75
2019-05-13T01:45:05.259Z,75
2019-05-13T01:45:40.113Z,75
2019-05-13T01:46:16.085Z,75
2019-05-13T01:46:54.231Z,75
2019-05-13T01:47:28.142Z,75
2019-05-13T01:48:08.636Z,75
2019-05-13T01:48:40.093Z,75
2019-05-13T01:49:19.151Z,75
2019-05-13T01:49:54.484Z,75
2019-05-13T01:50:28.112Z,75
2019-05-13T01:51:04.577Z,75
2019-05-13T01:51:40.192Z,75
2019-05-13T01:52:16.148Z,75
2019-05-13T01:52:53.882Z,75
2019-05-13T01:53:28.120Z,75
2019-05-13T01:54:04.787Z,75
2019-05-13T01:54:40.148Z,75
2019-05-13T01:55:16.097Z,75
2019-05-13T01:55:53.876Z,75
2019-05-13T01:56:28.243Z,75
2019-05-13T01:57:05.075Z,75
2019-05-13T01:57:40.106Z,75
2019-05-13T01:58:16.192Z,75
2019-05-13T01:58:54.660Z,76
2019-05-13T01:59:28.141Z,76
2019-05-13T02:00:05.336Z,76
2019-05-13T02:00:40.195Z,76
2019-05-13T02:01:16.170Z,76
2019-05-13T02:01:54.550Z,76
2019-05-13T02:02:28.123Z,76
2019-05-13T02:03:04.744Z,76
2019-05-13T02:03:40.156Z,76
2019-05-13T02:04:16.121Z,76
2019-05-13T02:04:53.825Z,76
2019-05-13T02:05:28.180Z,76
2019-05-13T02:06:04.476Z,76
2019-05-13T02:06:40.132Z,77
2019-05-13T02:07:16.115Z,77
2019-05-13T02:08:03.963Z,77
2019-05-13T02:08:28.171Z,77
2019-05-13T02:09:04.533Z,77
2019-05-13T02:09:40.113Z,77
2019-05-13T02:10:16.197Z,77
2019-05-13T02:10:55.436Z,77
2019-05-13T02:11:28.116Z,77
2019-05-13T02:12:05.537Z,77
2019-05-13T02:12:40.253Z,77
2019-05-13T02:13:16.147Z,77
2019-05-13T02:13:54.530Z,77
2019-05-13T02:14:28.088Z,77
2019-05-13T02:15:05.017Z,77
2019-05-13T02:15:40.151Z,77
2019-05-13T02:16:16.126Z,77
2019-05-13T02:16:54.226Z,77
2019-05-13T02:17:28.178Z,77
2019-05-13T02:18:04.610Z,77
2019-05-13T02:18:40.116Z,77
2019-05-13T02:19:16.216Z,77
2019-05-13T02:19:54.605Z,77
2019-05-13T02:20:28.142Z,78
2019-05-13T02:21:06.112Z,78
2019-05-13T02:21:40.228Z,78
2019-05-13T02:22:16.168Z,78
2019-05-13T02:22:54.198Z,78
2019-05-13T02:23:28.115Z,78
2019-05-13T02:24:04.968Z,79
2019-05-13T02:24:40.164Z,79
2019-05-13T02:25:16.129Z,79
2019-05-13T02:25:54.970Z,79
2019-05-13T02:26:28.240Z,79
2019-05-13T02:27:04.495Z,80
2019-05-13T02:27:40.174Z,80
2019-05-13T02:28:16.142Z,80
2019-05-13T02:28:54.593Z,79
2019-05-13T02:29:28.174Z,79
2019-05-13T02:30:06.356Z,79
2019-05-13T02:30:40.133Z,80
2019-05-13T02:31:50.805Z,80
2019-05-13T02:32:28.118Z,80
2019-05-13T02:33:04.156Z,80
2019-05-13T02:33:42.885Z,80
2019-05-13T02:34:16.158Z,80
2019-05-13T02:34:53.955Z,80
2019-05-13T02:35:28.087Z,80
2019-05-13T02:36:04.253Z,80
2019-05-13T02:36:44.437Z,80
2019-05-13T02:37:16.133Z,80
2019-05-13T02:37:53.231Z,80
2019-05-13T02:38:35.955Z,80
2019-05-13T02:39:04.193Z,80
2019-05-13T02:39:43.315Z,80
2019-05-13T02:40:16.089Z,80
2019-05-13T02:40:54.046Z,80
2019-05-13T02:41:28.193Z,80
2019-05-13T02:42:04.634Z,80
2019-05-13T02:42:44.330Z,79
2019-05-13T02:43:16.200Z,80
2019-05-13T02:43:53.274Z,79
2019-05-13T02:44:28.143Z,79
2019-05-13T02:45:04.660Z,79
2019-05-13T02:45:43.471Z,79
2019-05-13T02:46:16.144Z,79
2019-05-13T02:46:53.047Z,79
2019-05-13T02:47:28.203Z,79
2019-05-13T02:48:04.365Z,79
2019-05-13T02:48:42.939Z,80
2019-05-13T02:49:16.144Z,80
2019-05-13T02:49:53.949Z,80
2019-05-13T02:50:28.178Z,80
2019-05-13T02:51:04.784Z,80
2019-05-13T02:51:43.578Z,80
2019-05-13T02:52:16.207Z,80
2019-05-13T02:52:53.768Z,80
2019-05-13T02:53:28.124Z,81
2019-05-13T02:54:04.371Z,81
2019-05-13T02:54:43.295Z,81
2019-05-13T02:55:16.162Z,81
2019-05-13T02:55:53.201Z,81
2019-05-13T02:56:28.117Z,81
2019-05-13T02:57:04.814Z,81
2019-05-13T02:57:44.343Z,81
2019-05-13T02:58:16.138Z,81
2019-05-13T02:58:53.206Z,81
2019-05-13T02:59:28.196Z,81
2019-05-13T03:00:04.968Z,80
2019-05-13T03:00:44.682Z,81
2019-05-13T03:01:16.080Z,80
2019-05-13T03:01:54.130Z,80
2019-05-13T03:02:28.152Z,80
2019-05-13T03:03:04.226Z,80
2019-05-13T03:03:40.080Z,80
2019-05-13T03:04:16.187Z,80
2019-05-13T03:04:53.009Z,80
2019-05-13T03:05:28.098Z,80
2019-05-13T03:06:04.234Z,80
2019-05-13T03:06:44.103Z,80
2019-05-13T03:07:16.154Z,80
2019-05-13T03:07:53.740Z,80
2019-05-13T03:08:53.806Z,80
2019-05-13T03:09:42.874Z,80
2019-05-13T03:10:16.127Z,80
2019-05-13T03:10:54.350Z,80
2019-05-13T03:11:28.168Z,80
2019-05-13T03:12:05.086Z,80
2019-05-13T03:12:43.484Z,80
2019-05-13T03:13:16.230Z,80
2019-05-13T03:13:53.743Z,80
2019-05-13T03:14:28.150Z,80
2019-05-13T03:15:04.112Z,80
2019-05-13T03:15:43.346Z,80
2019-05-13T03:16:16.179Z,80
2019-05-13T03:16:53.234Z,80
2019-05-13T03:17:28.115Z,81
2019-05-13T03:18:04.234Z,80
2019-05-13T03:18:44.276Z,80
2019-05-13T03:19:16.144Z,80
2019-05-13T03:19:53.822Z,80
2019-05-13T03:20:28.290Z,80
2019-05-13T03:21:04.322Z,80
2019-05-13T03:21:43.504Z,80
2019-05-13T03:22:16.158Z,80
2019-05-13T03:22:53.390Z,81
2019-05-13T03:23:28.199Z,81
2019-05-13T03:24:04.437Z,80
2019-05-13T03:24:43.507Z,81
2019-05-13T03:25:16.180Z,81
2019-05-13T03:25:54.466Z,81
2019-05-13T03:26:28.122Z,81
2019-05-13T03:27:04.219Z,81
2019-05-13T03:27:43.397Z,81
2019-05-13T03:28:16.159Z,81
2019-05-13T03:28:53.052Z,81
2019-05-13T03:29:28.207Z,81
2019-05-13T03:30:05.477Z,81
2019-05-13T03:30:46.779Z,81
2019-05-13T03:31:18.422Z,81
2019-05-13T03:31:57.247Z,81
2019-05-13T03:32:52.635Z,81
2019-05-13T03:33:19.755Z,81
2019-05-13T03:33:48.038Z,81
2019-05-13T03:34:57.604Z,82
2019-05-13T03:35:28.816Z,82
2019-05-13T03:36:14.116Z,82
2019-05-13T03:37:17.252Z,82
2019-05-13T03:37:53.485Z,82
2019-05-13T03:38:28.110Z,82
2019-05-13T03:39:16.710Z,82
2019-05-13T03:39:43.960Z,82
2019-05-13T03:40:16.131Z,82
2019-05-13T03:40:53.288Z,82
2019-05-13T03:41:28.226Z,82
2019-05-13T03:42:04.184Z,82
2019-05-13T03:42:43.029Z,82
2019-05-13T03:43:16.113Z,82
2019-05-13T03:43:53.930Z,82
2019-05-13T03:44:28.224Z,82
2019-05-13T03:45:04.167Z,82
2019-05-13T03:45:43.554Z,82
2019-05-13T03:46:16.231Z,82
2019-05-13T03:46:53.579Z,82
2019-05-13T03:47:28.154Z,82
2019-05-13T03:48:05.080Z,82
2019-05-13T03:48:43.600Z,82
2019-05-13T03:49:16.164Z,82
2019-05-13T03:49:53.837Z,82
2019-05-13T03:50:35.269Z,82
2019-05-13T03:51:04.229Z,82
2019-05-13T03:51:43.459Z,82
2019-05-13T03:52:16.186Z,82
2019-05-13T03:52:53.273Z,82
2019-05-13T03:53:28.216Z,82
2019-05-13T03:54:16.189Z,82
2019-05-13T03:54:52.736Z,82
2019-05-13T03:55:28.160Z,82
2019-05-13T03:56:04.241Z,82
2019-05-13T03:56:43.174Z,82
2019-05-13T03:57:16.469Z,82
2019-05-13T03:57:53.990Z,82
2019-05-13T03:58:28.229Z,82
2019-05-13T03:59:04.221Z,82
2019-05-13T03:59:44.288Z,82
2019-05-13T04:00:16.109Z,82
2019-05-13T04:00:52.522Z,82
2019-05-13T04:01:28.210Z,82
2019-05-13T04:02:04.224Z,82
2019-05-13T04:02:52.842Z,82
2019-05-13T04:03:28.130Z,82
2019-05-13T04:04:04.228Z,82
2019-05-13T04:04:43.022Z,82
2019-05-13T04:05:16.167Z,82
2019-05-13T04:05:53.466Z,82
2019-05-13T04:06:28.194Z,82
2019-05-13T04:07:04.234Z,82
2019-05-13T04:07:43.933Z,82
2019-05-13T04:08:16.127Z,82
2019-05-13T04:08:54.661Z,82
2019-05-13T04:09:36.840Z,82
2019-05-13T04:10:04.403Z,82
2019-05-13T04:10:42.790Z,82
2019-05-13T04:11:16.193Z,82
2019-05-13T04:11:53.288Z,82
2019-05-13T04:12:29.148Z,82
2019-05-13T04:13:04.769Z,82
2019-05-13T04:13:43.785Z,82
2019-05-13T04:14:16.159Z,82
2019-05-13T04:14:53.542Z,82
2019-05-13T04:15:28.213Z,82
2019-05-13T04:16:04.955Z,82
2019-05-13T04:16:43.491Z,82
2019-05-13T04:17:16.172Z,82
2019-05-13T04:17:53.969Z,82
2019-05-13T04:18:28.179Z,82
2019-05-13T04:19:04.148Z,82
2019-05-13T04:19:42.911Z,82
2019-05-13T04:20:16.211Z,83
2019-05-13T04:20:53.715Z,83
2019-05-13T04:21:28.161Z,82
2019-05-13T04:22:04.179Z,82
2019-05-13T04:22:43.103Z,82
2019-05-13T04:23:16.166Z,81
2019-05-13T04:23:53.894Z,80
2019-05-13T04:24:28.130Z,80
2019-05-13T04:25:04.346Z,79
2019-05-13T04:25:45.289Z,78
2019-05-13T04:26:16.136Z,78
2019-05-13T04:26:53.985Z,78
2019-05-13T04:27:28.246Z,77
2019-05-13T04:28:04.305Z,77
2019-05-13T04:28:44.379Z,76
2019-05-13T04:29:16.104Z,76
2019-05-13T04:29:53.388Z,75
2019-05-13T04:30:28.170Z,75
2019-05-13T04:31:04.468Z,75
2019-05-13T04:31:43.051Z,74
2019-05-13T04:32:16.193Z,74
2019-05-13T04:32:54.180Z,73
2019-05-13T04:33:28.134Z,73
2019-05-13T04:34:04.112Z,73
2019-05-13T04:34:43.098Z,73
2019-05-13T04:35:16.175Z,73
2019-05-13T04:35:53.663Z,72
2019-05-13T04:36:28.134Z,72
2019-05-13T04:37:04.280Z,72
2019-05-13T04:37:43.595Z,72
2019-05-13T04:38:16.128Z,72
2019-05-13T04:38:53.701Z,72
2019-05-13T04:39:54.827Z,72
2019-05-13T04:40:43.054Z,72
2019-05-13T04:41:16.204Z,71
2019-05-13T04:41:53.556Z,71
2019-05-13T04:42:28.193Z,71
2019-05-13T04:43:04.198Z,71
2019-05-13T04:43:44.586Z,71
2019-05-13T04:44:16.217Z,71
2019-05-13T04:44:53.883Z,71
2019-05-13T04:45:28.122Z,71
2019-05-13T04:46:04.225Z,70
2019-05-13T04:46:43.965Z,70
2019-05-13T04:47:16.151Z,70
2019-05-13T04:47:53.608Z,69
2019-05-13T04:48:28.200Z,69
2019-05-13T04:49:04.177Z,69
2019-05-13T04:49:43.398Z,69
2019-05-13T04:50:16.109Z,68
2019-05-13T04:50:54.031Z,68
2019-05-13T04:51:28.191Z,69
2019-05-13T04:52:04.573Z,69
2019-05-13T04:52:42.989Z,69
2019-05-13T04:53:16.207Z,68
2019-05-13T04:53:57.866Z,68
2019-05-13T04:54:28.152Z,68
2019-05-13T04:55:04.379Z,68
2019-05-13T04:55:43.257Z,68
2019-05-13T04:56:16.169Z,67
2019-05-13T04:56:53.329Z,67
2019-05-13T04:57:28.142Z,67
2019-05-13T04:58:04.516Z,67
2019-05-13T04:58:43.658Z,67
2019-05-13T04:59:16.169Z,67
2019-05-13T04:59:55.663Z,66
2019-05-13T05:00:28.199Z,67
2019-05-13T05:01:14.411Z,67
2019-05-13T05:02:00.574Z,66
2019-05-13T05:02:56.013Z,66
2019-05-13T05:03:45.665Z,66
2019-05-13T05:04:28.370Z,66
2019-05-13T05:05:16.178Z,66
2019-05-13T05:05:53.376Z,66
2019-05-13T05:06:28.177Z,66
2019-05-13T05:07:04.167Z,66
2019-05-13T05:07:42.644Z,66
2019-05-13T05:08:16.156Z,66
2019-05-13T05:08:53.100Z,65
2019-05-13T05:09:28.207Z,65
2019-05-13T05:10:38.225Z,65
2019-05-13T05:11:28.152Z,65
2019-05-13T05:12:04.130Z,64
2019-05-13T05:12:43.039Z,64
2019-05-13T05:13:16.176Z,64
2019-05-13T05:13:57.260Z,64
2019-05-13T05:14:28.146Z,64
2019-05-13T05:15:04.223Z,64
2019-05-13T05:15:42.374Z,64
2019-05-13T05:16:16.145Z,64
2019-05-13T05:16:52.888Z,64
2019-05-13T05:17:28.196Z,64
2019-05-13T05:18:04.211Z,64
2019-05-13T05:18:42.767Z,64
2019-05-13T05:19:16.121Z,64
2019-05-13T05:19:53.200Z,63
2019-05-13T05:20:28.168Z,64
2019-05-13T05:21:04.138Z,63
2019-05-13T05:21:42.301Z,63
2019-05-13T05:22:16.187Z,62
2019-05-13T05:22:52.170Z,62
2019-05-13T05:23:28.168Z,63
2019-05-13T05:24:04.097Z,62
2019-05-13T05:24:41.927Z,62
2019-05-13T05:25:16.145Z,62
2019-05-13T05:25:52.754Z,63
2019-05-13T05:26:28.094Z,63
2019-05-13T05:27:04.188Z,62
2019-05-13T05:27:42.541Z,62
2019-05-13T05:28:16.129Z,62
2019-05-13T05:28:52.498Z,61
2019-05-13T05:29:28.194Z,61
2019-05-13T05:30:04.154Z,61
2019-05-13T05:30:41.784Z,61
2019-05-13T05:31:16.089Z,61
2019-05-13T05:31:52.566Z,61
2019-05-13T05:32:28.161Z,61
2019-05-13T05:33:04.138Z,62
2019-05-13T05:33:41.763Z,61
2019-05-13T05:34:16.202Z,60
2019-05-13T05:34:52.496Z,60
2019-05-13T05:35:28.111Z,60
2019-05-13T05:36:04.092Z,60
2019-05-13T05:36:42.034Z,60
2019-05-13T05:37:16.162Z,60
2019-05-13T05:37:52.828Z,60
2019-05-13T05:38:28.079Z,60
2019-05-13T05:39:04.194Z,59
2019-05-13T05:39:42.538Z,60
2019-05-13T05:40:34.996Z,59
2019-05-13T05:41:28.179Z,58
2019-05-13T05:42:04.149Z,58
2019-05-13T05:42:41.829Z,58
2019-05-13T05:43:16.096Z,59
2019-05-13T05:43:52.858Z,60
2019-05-13T05:44:28.176Z,60
2019-05-13T05:45:04.107Z,61
2019-05-13T05:45:41.894Z,61
2019-05-13T05:46:16.159Z,61
2019-05-13T05:46:52.156Z,61
2019-05-13T05:47:28.102Z,60
2019-05-13T05:48:04.188Z,60
2019-05-13T05:48:42.509Z,59
2019-05-13T05:49:16.134Z,59
2019-05-13T05:49:52.242Z,59
2019-05-13T05:50:28.181Z,59
2019-05-13T05:51:04.166Z,59
2019-05-13T05:51:42.410Z,58
2019-05-13T05:52:16.116Z,58
2019-05-13T05:52:52.197Z,58
2019-05-13T05:53:28.158Z,57
2019-05-13T05:54:16.166Z,57
2019-05-13T05:54:52.232Z,56
2019-05-13T05:55:28.099Z,56
2019-05-13T05:56:04.199Z,56
2019-05-13T05:56:42.033Z,57
2019-05-13T05:57:16.124Z,57
2019-05-13T05:57:52.814Z,57
2019-05-13T05:58:28.180Z,57
2019-05-13T05:59:04.163Z,57
2019-05-13T05:59:43.256Z,57
2019-05-13T06:00:16.133Z,57
2019-05-13T06:00:52.655Z,57
2019-05-13T06:01:28.142Z,57
2019-05-13T06:02:04.126Z,57
2019-05-13T06:02:53.865Z,57
2019-05-13T06:03:28.092Z,56
2019-05-13T06:04:04.171Z,56
2019-05-13T06:04:43.689Z,56
2019-05-13T06:05:16.170Z,56
2019-05-13T06:05:52.073Z,57
2019-05-13T06:06:28.210Z,56
2019-05-13T06:07:04.207Z,56
2019-05-13T06:07:42.644Z,55
2019-05-13T06:08:18.370Z,55
2019-05-13T06:08:52.283Z,54
2019-05-13T06:09:28.141Z,55
2019-05-13T06:10:04.109Z,54
2019-05-13T06:10:54.007Z,54
2019-05-13T06:11:28.076Z,55
2019-05-13T06:12:04.163Z,54
2019-05-13T06:12:42.832Z,54
2019-05-13T06:13:16.109Z,54
2019-05-13T06:13:55.085Z,53
2019-05-13T06:14:28.201Z,53
2019-05-13T06:15:04.126Z,53
2019-05-13T06:15:42.548Z,53
2019-05-13T06:16:16.071Z,53
2019-05-13T06:16:52.519Z,53
2019-05-13T06:17:28.121Z,53
2019-05-13T06:18:04.104Z,52
2019-05-13T06:18:42.142Z,52
2019-05-13T06:19:18.467Z,52
2019-05-13T06:19:52.125Z,53
2019-05-13T06:20:28.094Z,53
2019-05-13T06:21:04.073Z,52
2019-05-13T06:21:42.548Z,51
2019-05-13T06:22:16.108Z,51
2019-05-13T06:22:52.225Z,50
2019-05-13T06:23:28.070Z,51
2019-05-13T06:24:04.171Z,51
2019-05-13T06:24:42.775Z,50
2019-05-13T06:25:16.115Z,50
2019-05-13T06:25:53.324Z,50
2019-05-13T06:26:28.129Z,49
2019-05-13T06:27:04.114Z,50
2019-05-13T06:27:42.464Z,49
2019-05-13T06:28:16.052Z,51
2019-05-13T06:29:04.060Z,50
2019-05-13T06:29:42.860Z,50
2019-05-13T06:30:16.124Z,49
2019-05-13T06:30:52.703Z,49
2019-05-13T06:31:28.050Z,49
2019-05-13T06:32:26.528Z,49
2019-05-13T06:33:16.079Z,47
2019-05-13T06:33:52.140Z,46
2019-05-13T06:34:28.130Z,44
2019-05-13T06:35:04.111Z,45
2019-05-13T06:35:45.272Z,45
2019-05-13T06:36:16.060Z,46
2019-05-13T06:36:52.911Z,46
2019-05-13T06:37:28.114Z,45
2019-05-13T06:38:04.080Z,45
2019-05-13T06:38:42.989Z,45
2019-05-13T06:39:16.174Z,45
2019-05-13T06:39:52.111Z,45
2019-05-13T06:40:28.062Z,44
2019-05-13T06:41:14.866Z,44
2019-05-13T06:41:42.321Z,44
2019-05-13T06:42:16.114Z,43
2019-05-13T06:42:52.835Z,43
2019-05-13T06:43:28.156Z,43
2019-05-13T06:44:04.123Z,43
2019-05-13T06:44:42.547Z,43
2019-05-13T06:45:16.060Z,44
2019-05-13T06:45:52.150Z,44
2019-05-13T06:46:28.132Z,43
2019-05-13T06:47:04.087Z,43
2019-05-13T06:47:41.938Z,43
2019-05-13T06:48:16.140Z,44
2019-05-13T06:49:04.139Z,44
2019-05-13T06:49:43.288Z,44
2019-05-13T06:50:16.088Z,43
2019-05-13T06:50:52.692Z,43
2019-05-13T06:51:28.167Z,43
2019-05-13T06:52:04.118Z,43
2019-05-13T06:52:43.060Z,43
2019-05-13T06:53:16.060Z,43
2019-05-13T06:53:52.399Z,44
2019-05-13T06:54:28.107Z,44
2019-05-13T06:55:04.089Z,43
2019-05-13T06:55:52.866Z,42
2019-05-13T06:56:28.071Z,41
2019-05-13T06:57:06.712Z,40
2019-05-13T06:57:42.703Z,40
2019-05-13T06:58:16.079Z,40
2019-05-13T06:59:16.098Z,40
2019-05-13T06:59:52.991Z,40
2019-05-13T07:00:28.054Z,39
2019-05-13T07:01:05.083Z,38
2019-05-13T07:02:04.062Z,38
2019-05-13T07:02:52.416Z,37
2019-05-13T07:03:28.117Z,38
2019-05-13T07:04:04.097Z,39
2019-05-13T07:04:42.129Z,37
2019-05-13T07:05:28.080Z,37
2019-05-13T07:06:28.119Z,37
2019-05-13T07:07:28.112Z,37
2019-05-13T07:08:04.103Z,38
2019-05-13T07:08:42.436Z,38
2019-05-13T07:09:16.037Z,39
2019-05-13T07:10:04.030Z,38
2019-05-13T07:10:42.052Z,38
2019-05-13T07:11:28.376Z,38
2019-05-13T07:12:04.328Z,38
2019-05-13T07:12:41.877Z,38
2019-05-13T07:13:16.025Z,38
2019-05-13T07:13:52.317Z,37
2019-05-13T07:14:41.916Z,36
2019-05-13T07:15:16.103Z,36
2019-05-13T07:15:52.822Z,36
2019-05-13T07:16:28.089Z,36
2019-05-13T07:17:04.130Z,36
2019-05-13T07:17:42.210Z,35
2019-05-13T07:18:16.942Z,35
2019-05-13T07:18:52.887Z,34
2019-05-13T07:19:28.114Z,35
2019-05-13T07:20:04.070Z,35
2019-05-13T07:20:43.165Z,35
2019-05-13T07:21:16.024Z,35
2019-05-13T07:21:52.729Z,36
2019-05-13T07:22:28.085Z,36
2019-05-13T07:23:28.093Z,36
2019-05-13T07:24:04.086Z,36
2019-05-13T07:24:42.099Z,36
2019-05-13T07:25:16.009Z,36
2019-05-13T07:26:04.073Z,36
2019-05-13T07:26:42.647Z,37
2019-05-13T07:27:16.081Z,36
2019-05-13T07:27:52.214Z,36
2019-05-13T07:28:28.027Z,37
2019-05-13T07:29:06.200Z,36
2019-05-13T07:29:42.662Z,36
2019-05-13T07:30:16.033Z,35
2019-05-13T07:30:52.277Z,37
2019-05-13T07:31:28.086Z,37
2019-05-13T07:32:04.065Z,36
2019-05-13T07:32:42.550Z,36
2019-05-13T07:33:16.000Z,35
2019-05-13T07:33:52.368Z,35
2019-05-13T07:34:28.062Z,36
2019-05-13T07:35:04.900Z,35
2019-05-13T07:35:46.460Z,35
2019-05-13T07:36:16.084Z,36
2019-05-13T07:36:52.054Z,36
2019-05-13T07:37:28.039Z,35
2019-05-13T07:38:16.046Z,36
2019-05-13T07:39:04.056Z,35
2019-05-13T07:39:42.333Z,35
2019-05-13T07:40:16.113Z,35
2019-05-13T07:40:52.785Z,34
2019-05-13T07:41:43.658Z,34
2019-05-13T07:42:16.049Z,34
2019-05-13T07:42:52.871Z,34
2019-05-13T07:43:43.058Z,34
2019-05-13T07:44:16.073Z,34
2019-05-13T07:45:04.072Z,32
2019-05-13T07:46:42.948Z,33
2019-05-13T07:48:28.656Z,34
2019-05-13T07:49:52.268Z,35
2019-05-13T07:51:28.078Z,35
2019-05-13T07:53:28.036Z,34
2019-05-13T07:54:28.031Z,36
2019-05-13T07:55:28.079Z,36
2019-05-13T07:56:04.051Z,37
2019-05-13T07:56:42.864Z,37
2019-05-13T07:57:28.004Z,38
2019-05-13T07:58:04.132Z,38
2019-05-13T07:58:42.496Z,38
2019-05-13T07:59:42.482Z,37
2019-05-13T08:00:28.098Z,38
2019-05-13T08:01:16.097Z,39
2019-05-13T08:02:16.003Z,37
2019-05-13T08:05:52.061Z,33
2019-05-13T08:06:28.032Z,34
2019-05-13T08:07:03.987Z,35
2019-05-13T08:07:42.673Z,35
2019-05-13T08:08:42.276Z,36
2019-05-13T08:09:16.068Z,36
2019-05-13T08:10:15.970Z,36
2019-05-13T08:10:52.637Z,36
2019-05-13T08:12:52.243Z,35
2019-05-13T08:13:45.022Z,34
2019-05-13T08:14:28.029Z,34
2019-05-13T08:15:04.061Z,35
2019-05-13T08:16:16.038Z,34
2019-05-13T08:16:52.477Z,34
2019-05-13T08:18:04.179Z,34
2019-05-13T08:18:52.979Z,33
2019-05-13T08:19:28.052Z,33
2019-05-13T08:20:28.068Z,34
2019-05-13T08:21:28.077Z,34
2019-05-13T08:22:04.050Z,35
2019-05-13T08:22:42.699Z,35
2019-05-13T08:23:15.999Z,35
2019-05-13T08:23:53.137Z,36
2019-05-13T08:24:28.052Z,36
2019-05-13T08:25:04.112Z,36
2019-05-13T08:25:42.962Z,35
2019-05-13T08:26:15.978Z,35
2019-05-13T08:26:53.842Z,35
2019-05-13T08:27:35.526Z,32
2019-05-13T08:28:03.986Z,32
2019-05-13T08:29:05.893Z,32
2019-05-13T08:29:52.799Z,33
2019-05-13T08:31:03.973Z,34
2019-05-13T08:31:41.852Z,34
2019-05-13T08:32:16.050Z,32
2019-05-13T08:32:52.913Z,32
2019-05-13T08:33:42.613Z,31
2019-05-13T08:34:15.973Z,32
2019-05-13T08:35:09.904Z,33
2019-05-13T08:36:03.978Z,34
2019-05-13T08:36:43.241Z,33
2019-05-13T08:37:16.047Z,35
2019-05-13T08:37:52.681Z,33
2019-05-13T08:38:52.591Z,33
2019-05-13T08:39:41.238Z,32
2019-05-13T08:40:03.986Z,32
2019-05-13T08:40:42.991Z,32
2019-05-13T08:41:27.952Z,32
2019-05-13T08:42:23.803Z,32
2019-05-13T08:42:52.640Z,31
2019-05-13T08:43:28.025Z,32
2019-05-13T08:44:03.967Z,31
2019-05-13T08:44:42.311Z,30
2019-05-13T08:45:16.023Z,29
2019-05-13T08:45:56.158Z,30
2019-05-13T08:46:27.985Z,30
2019-05-13T08:47:04.214Z,29
2019-05-13T08:47:42.535Z,30
2019-05-13T08:48:15.985Z,30
2019-05-13T08:48:52.461Z,30
2019-05-13T08:49:28.062Z,30
2019-05-13T08:50:05.103Z,29
2019-05-13T08:50:42.586Z,29
2019-05-13T08:51:15.975Z,29
2019-05-13T08:51:53.323Z,29
2019-05-13T08:52:28.038Z,29
2019-05-13T08:53:03.985Z,30
2019-05-13T08:53:42.720Z,30
2019-05-13T08:54:27.953Z,29
2019-05-13T08:55:04.056Z,29
2019-05-13T08:55:43.413Z,29
2019-05-13T08:56:28.052Z,29
2019-05-13T08:57:04.006Z,29
2019-05-13T08:57:42.535Z,29
2019-05-13T08:58:16.041Z,29
2019-05-13T08:58:52.791Z,30
2019-05-13T08:59:27.998Z,30
2019-05-13T09:00:06.251Z,31
2019-05-13T09:00:42.055Z,31
2019-05-13T09:01:16.004Z,32
2019-05-13T09:01:52.656Z,32
2019-05-13T09:02:27.961Z,31
2019-05-13T09:03:06.822Z,31
2019-05-13T09:03:42.311Z,31
2019-05-13T09:04:15.971Z,31